sensor_id;sensor_type;location;lat;lon;timestamp;pressure;altitude;pressure_sealevel;temperature;humidity
58373;BME280;44177;43.356;27.672;2023-05-24T00:01:17;97892.50;;;12.77;83.56
58373;BME280;44177;43.356;27.672;2023-05-24T00:03:53;97886.72;;;12.82;83.37
58373;BME280;44177;43.356;27.672;2023-05-24T00:06:23;97885.13;;;12.81;83.31
58373;BME280;44177;43.356;27.672;2023-05-24T00:08:50;97883.91;;;12.78;83.88
58373;BME280;44177;43.356;27.672;2023-05-24T00:11:16;97883.19;;;12.82;83.93
58373;BME280;44177;43.356;27.672;2023-05-24T00:13:41;97881.97;;;12.79;84.12
58373;BME280;44177;43.356;27.672;2023-05-24T00:16:07;97875.66;;;12.75;84.23
58373;BME280;44177;43.356;27.672;2023-05-24T00:18:32;97879.63;;;12.77;83.66
58373;BME280;44177;43.356;27.672;2023-05-24T00:20:58;97882.75;;;12.79;83.24
58373;BME280;44177;43.356;27.672;2023-05-24T00:23:24;97869.41;;;12.74;83.01
58373;BME280;44177;43.356;27.672;2023-05-24T00:25:52;97874.88;;;12.74;83.15
58373;BME280;44177;43.356;27.672;2023-05-24T00:28:18;97873.22;;;12.70;83.18
58373;BME280;44177;43.356;27.672;2023-05-24T00:30:43;97870.06;;;12.68;82.72
58373;BME280;44177;43.356;27.672;2023-05-24T00:33:09;97879.97;;;12.76;82.59
58373;BME280;44177;43.356;27.672;2023-05-24T00:35:34;97857.03;;;12.57;82.84
58373;BME280;44177;43.356;27.672;2023-05-24T00:38:00;97878.09;;;12.80;83.33
58373;BME280;44177;43.356;27.672;2023-05-24T00:40:25;97861.31;;;12.55;83.22
58373;BME280;44177;43.356;27.672;2023-05-24T00:42:51;97867.56;;;12.55;83.43
58373;BME280;44177;43.356;27.672;2023-05-24T00:45:16;97873.25;;;12.43;83.60
58373;BME280;44177;43.356;27.672;2023-05-24T00:47:42;97885.38;;;12.45;84.18
58373;BME280;44177;43.356;27.672;2023-05-24T00:50:09;97890.16;;;12.52;83.80
58373;BME280;44177;43.356;27.672;2023-05-24T00:52:38;97884.56;;;12.45;83.30
58373;BME280;44177;43.356;27.672;2023-05-24T00:55:06;97890.06;;;12.45;82.60
58373;BME280;44177;43.356;27.672;2023-05-24T00:57:32;97888.34;;;12.37;82.79
58373;BME280;44177;43.356;27.672;2023-05-24T00:59:58;97886.81;;;12.39;82.67
58373;BME280;44177;43.356;27.672;2023-05-24T01:02:24;97880.53;;;12.35;82.40
58373;BME280;44177;43.356;27.672;2023-05-24T01:04:50;97880.34;;;12.24;81.89
58373;BME280;44177;43.356;27.672;2023-05-24T01:18:24;97883.09;;;12.24;82.63
58373;BME280;44177;43.356;27.672;2023-05-24T01:21:28;97875.19;;;12.19;81.95
58373;BME280;44177;43.356;27.672;2023-05-24T01:27:07;97877.31;;;12.29;82.87
58373;BME280;44177;43.356;27.672;2023-05-24T01:29:34;97871.53;;;12.35;81.91
58373;BME280;44177;43.356;27.672;2023-05-24T01:32:01;97870.34;;;12.36;82.35
58373;BME280;44177;43.356;27.672;2023-05-24T01:34:27;97870.31;;;12.32;82.22
58373;BME280;44177;43.356;27.672;2023-05-24T01:36:53;97865.88;;;12.24;82.55
58373;BME280;44177;43.356;27.672;2023-05-24T01:39:19;97872.16;;;12.24;82.65
58373;BME280;44177;43.356;27.672;2023-05-24T01:42:10;97881.13;;;12.25;82.16
58373;BME280;44177;43.356;27.672;2023-05-24T01:44:46;97878.81;;;12.27;81.40
58373;BME280;44177;43.356;27.672;2023-05-24T01:47:27;97880.34;;;12.24;81.63
58373;BME280;44177;43.356;27.672;2023-05-24T01:49:57;97869.28;;;12.17;82.12
58373;BME280;44177;43.356;27.672;2023-05-24T01:52:28;97874.81;;;12.21;82.76
58373;BME280;44177;43.356;27.672;2023-05-24T01:54:56;97881.91;;;12.02;82.79
58373;BME280;44177;43.356;27.672;2023-05-24T01:57:23;97889.47;;;12.09;82.78
58373;BME280;44177;43.356;27.672;2023-05-24T01:59:51;97881.63;;;12.07;82.92
58373;BME280;44177;43.356;27.672;2023-05-24T02:02:17;97890.69;;;12.11;83.54
58373;BME280;44177;43.356;27.672;2023-05-24T02:04:43;97886.91;;;12.20;83.38
58373;BME280;44177;43.356;27.672;2023-05-24T02:07:08;97884.19;;;12.20;83.39
58373;BME280;44177;43.356;27.672;2023-05-24T02:09:34;97879.97;;;12.26;83.04
58373;BME280;44177;43.356;27.672;2023-05-24T02:12:00;97889.09;;;12.34;83.25
58373;BME280;44177;43.356;27.672;2023-05-24T02:14:26;97885.06;;;12.27;83.18
58373;BME280;44177;43.356;27.672;2023-05-24T02:16:51;97878.03;;;12.26;82.96
58373;BME280;44177;43.356;27.672;2023-05-24T02:19:17;97893.81;;;12.37;83.11
58373;BME280;44177;43.356;27.672;2023-05-24T02:21:42;97885.22;;;12.35;83.13
58373;BME280;44177;43.356;27.672;2023-05-24T02:24:08;97888.00;;;12.38;83.46
58373;BME280;44177;43.356;27.672;2023-05-24T02:26:36;97894.00;;;12.47;83.05
58373;BME280;44177;43.356;27.672;2023-05-24T02:29:02;97899.84;;;12.46;83.73
58373;BME280;44177;43.356;27.672;2023-05-24T02:31:27;97881.72;;;12.38;83.84
58373;BME280;44177;43.356;27.672;2023-05-24T02:33:57;97888.94;;;12.50;84.21
58373;BME280;44177;43.356;27.672;2023-05-24T02:36:23;97900.38;;;12.55;84.05
58373;BME280;44177;43.356;27.672;2023-05-24T02:38:49;97903.56;;;12.57;84.05
58373;BME280;44177;43.356;27.672;2023-05-24T02:41:15;97896.16;;;12.61;84.04
58373;BME280;44177;43.356;27.672;2023-05-24T02:43:46;97899.78;;;12.66;83.70
58373;BME280;44177;43.356;27.672;2023-05-24T02:46:12;97911.50;;;12.66;83.90
58373;BME280;44177;43.356;27.672;2023-05-24T02:48:38;97899.66;;;12.58;83.08
58373;BME280;44177;43.356;27.672;2023-05-24T02:51:03;97907.56;;;12.63;83.24
58373;BME280;44177;43.356;27.672;2023-05-24T02:53:29;97909.97;;;12.69;82.45
58373;BME280;44177;43.356;27.672;2023-05-24T02:55:58;97910.06;;;12.76;82.44
58373;BME280;44177;43.356;27.672;2023-05-24T02:58:24;97906.13;;;12.73;81.96
58373;BME280;44177;43.356;27.672;2023-05-24T03:00:53;97906.75;;;12.63;82.41
58373;BME280;44177;43.356;27.672;2023-05-24T03:03:19;97908.88;;;12.73;82.54
58373;BME280;44177;43.356;27.672;2023-05-24T03:05:45;97901.84;;;12.76;82.83
58373;BME280;44177;43.356;27.672;2023-05-24T03:08:10;97901.13;;;12.79;83.04
58373;BME280;44177;43.356;27.672;2023-05-24T03:10:35;97908.63;;;12.82;83.52
58373;BME280;44177;43.356;27.672;2023-05-24T03:13:01;97911.72;;;12.80;84.30
58373;BME280;44177;43.356;27.672;2023-05-24T03:15:26;97909.78;;;12.81;84.99
58373;BME280;44177;43.356;27.672;2023-05-24T03:17:52;97904.66;;;12.79;84.84
58373;BME280;44177;43.356;27.672;2023-05-24T03:20:17;97912.63;;;12.88;85.47
58373;BME280;44177;43.356;27.672;2023-05-24T03:22:45;97906.38;;;12.91;85.28
58373;BME280;44177;43.356;27.672;2023-05-24T03:25:10;97909.56;;;12.93;85.03
58373;BME280;44177;43.356;27.672;2023-05-24T03:27:36;97914.69;;;12.99;84.53
58373;BME280;44177;43.356;27.672;2023-05-24T03:30:02;97923.81;;;13.06;84.38
58373;BME280;44177;43.356;27.672;2023-05-24T03:32:27;97919.88;;;13.04;83.71
58373;BME280;44177;43.356;27.672;2023-05-24T03:34:53;97928.56;;;13.09;83.65
58373;BME280;44177;43.356;27.672;2023-05-24T03:37:20;97925.81;;;13.09;83.95
58373;BME280;44177;43.356;27.672;2023-05-24T03:39:46;97927.38;;;13.10;84.53
58373;BME280;44177;43.356;27.672;2023-05-24T03:42:11;97929.44;;;13.17;84.41
58373;BME280;44177;43.356;27.672;2023-05-24T03:44:37;97920.50;;;13.20;84.66
58373;BME280;44177;43.356;27.672;2023-05-24T03:47:03;97925.63;;;13.25;85.03
58373;BME280;44177;43.356;27.672;2023-05-24T03:49:28;97930.00;;;13.30;84.81
58373;BME280;44177;43.356;27.672;2023-05-24T03:51:54;97924.97;;;13.32;85.13
58373;BME280;44177;43.356;27.672;2023-05-24T03:54:19;97935.66;;;13.41;85.21
58373;BME280;44177;43.356;27.672;2023-05-24T03:56:45;97930.66;;;13.47;84.91
58373;BME280;44177;43.356;27.672;2023-05-24T03:59:10;97928.72;;;13.51;85.00
58373;BME280;44177;43.356;27.672;2023-05-24T04:01:36;97923.66;;;13.53;85.24
58373;BME280;44177;43.356;27.672;2023-05-24T04:04:04;97932.47;;;13.69;84.77
58373;BME280;44177;43.356;27.672;2023-05-24T04:06:30;97944.25;;;13.73;85.00
58373;BME280;44177;43.356;27.672;2023-05-24T04:08:56;97940.47;;;13.85;84.52
58373;BME280;44177;43.356;27.672;2023-05-24T04:11:22;97934.38;;;13.99;84.47
58373;BME280;44177;43.356;27.672;2023-05-24T04:13:48;97941.13;;;14.09;84.48
58373;BME280;44177;43.356;27.672;2023-05-24T04:16:15;97937.72;;;14.19;84.19
58373;BME280;44177;43.356;27.672;2023-05-24T04:18:41;97934.75;;;14.35;84.27
58373;BME280;44177;43.356;27.672;2023-05-24T04:21:06;97926.72;;;14.61;84.19
58373;BME280;44177;43.356;27.672;2023-05-24T04:23:32;97936.31;;;14.81;84.28
58373;BME280;44177;43.356;27.672;2023-05-24T04:25:57;97924.25;;;14.97;83.58
58373;BME280;44177;43.356;27.672;2023-05-24T04:28:22;97931.03;;;15.10;83.56
58373;BME280;44177;43.356;27.672;2023-05-24T04:30:50;97937.38;;;15.29;83.33
58373;BME280;44177;43.356;27.672;2023-05-24T04:33:15;97932.78;;;15.47;83.13
58373;BME280;44177;43.356;27.672;2023-05-24T04:35:41;97936.00;;;15.68;83.80
58373;BME280;44177;43.356;27.672;2023-05-24T04:38:08;97939.69;;;16.01;83.35
58373;BME280;44177;43.356;27.672;2023-05-24T04:40:37;97937.38;;;16.35;81.55
58373;BME280;44177;43.356;27.672;2023-05-24T04:43:03;97931.88;;;16.61;81.26
58373;BME280;44177;43.356;27.672;2023-05-24T04:45:28;97936.59;;;16.85;79.07
58373;BME280;44177;43.356;27.672;2023-05-24T04:47:55;97934.25;;;17.02;78.44
58373;BME280;44177;43.356;27.672;2023-05-24T04:50:21;97925.16;;;17.09;79.20
58373;BME280;44177;43.356;27.672;2023-05-24T04:52:47;97938.91;;;17.30;78.71
58373;BME280;44177;43.356;27.672;2023-05-24T04:55:12;97929.34;;;17.60;78.75
58373;BME280;44177;43.356;27.672;2023-05-24T04:57:38;97933.72;;;17.58;77.92
58373;BME280;44177;43.356;27.672;2023-05-24T05:00:03;97929.25;;;17.82;77.60
58373;BME280;44177;43.356;27.672;2023-05-24T05:02:31;97930.78;;;17.94;76.07
58373;BME280;44177;43.356;27.672;2023-05-24T05:04:57;97930.34;;;18.06;75.80
58373;BME280;44177;43.356;27.672;2023-05-24T05:07:22;97932.22;;;18.20;76.26
58373;BME280;44177;43.356;27.672;2023-05-24T05:09:48;97940.38;;;18.42;76.06
58373;BME280;44177;43.356;27.672;2023-05-24T05:12:13;97928.81;;;18.58;74.01
58373;BME280;44177;43.356;27.672;2023-05-24T05:14:39;97942.50;;;18.72;73.22
58373;BME280;44177;43.356;27.672;2023-05-24T05:17:04;97931.31;;;18.94;73.22
58373;BME280;44177;43.356;27.672;2023-05-24T05:19:30;97921.75;;;18.99;73.06
58373;BME280;44177;43.356;27.672;2023-05-24T05:21:55;97942.50;;;19.21;73.31
58373;BME280;44177;43.356;27.672;2023-05-24T05:24:21;97939.88;;;19.45;73.83
58373;BME280;44177;43.356;27.672;2023-05-24T05:26:46;97916.72;;;19.63;72.62
58373;BME280;44177;43.356;27.672;2023-05-24T05:29:12;97936.00;;;19.70;70.14
58373;BME280;44177;43.356;27.672;2023-05-24T05:31:37;97948.53;;;19.78;71.35
58373;BME280;44177;43.356;27.672;2023-05-24T05:34:04;97946.84;;;19.53;70.28
58373;BME280;44177;43.356;27.672;2023-05-24T05:36:34;97965.69;;;19.66;70.74
58373;BME280;44177;43.356;27.672;2023-05-24T05:39:07;97956.13;;;19.74;70.63
58373;BME280;44177;43.356;27.672;2023-05-24T05:41:39;97955.16;;;19.92;70.21
58373;BME280;44177;43.356;27.672;2023-05-24T05:44:06;97954.38;;;19.87;69.03
58373;BME280;44177;43.356;27.672;2023-05-24T05:46:31;97948.00;;;19.94;69.39
58373;BME280;44177;43.356;27.672;2023-05-24T05:48:57;97959.81;;;19.95;70.04
58373;BME280;44177;43.356;27.672;2023-05-24T05:51:22;97956.34;;;19.91;69.07
58373;BME280;44177;43.356;27.672;2023-05-24T05:53:48;97929.63;;;19.73;69.02
58373;BME280;44177;43.356;27.672;2023-05-24T05:56:13;97960.97;;;19.97;69.31
58373;BME280;44177;43.356;27.672;2023-05-24T05:58:39;97958.88;;;20.09;68.68
58373;BME280;44177;43.356;27.672;2023-05-24T06:01:04;97967.13;;;20.12;68.10
58373;BME280;44177;43.356;27.672;2023-05-24T06:03:30;97964.94;;;20.27;67.68
58373;BME280;44177;43.356;27.672;2023-05-24T06:05:55;97961.44;;;20.23;67.79
58373;BME280;44177;43.356;27.672;2023-05-24T06:08:20;97965.00;;;20.24;66.89
58373;BME280;44177;43.356;27.672;2023-05-24T06:10:46;97974.78;;;20.28;67.54
58373;BME280;44177;43.356;27.672;2023-05-24T06:13:12;97976.28;;;20.06;66.65
58373;BME280;44177;43.356;27.672;2023-05-24T06:15:38;97976.44;;;19.95;67.84
58373;BME280;44177;43.356;27.672;2023-05-24T06:18:03;97973.22;;;20.00;68.56
58373;BME280;44177;43.356;27.672;2023-05-24T06:20:29;97979.50;;;20.04;67.84
58373;BME280;44177;43.356;27.672;2023-05-24T06:22:54;97976.53;;;20.18;67.62
58373;BME280;44177;43.356;27.672;2023-05-24T06:25:21;97971.41;;;20.17;67.87
58373;BME280;44177;43.356;27.672;2023-05-24T06:27:49;97973.25;;;20.27;67.49
58373;BME280;44177;43.356;27.672;2023-05-24T06:30:15;97975.59;;;20.29;67.63
58373;BME280;44177;43.356;27.672;2023-05-24T06:32:40;97978.22;;;20.40;66.65
58373;BME280;44177;43.356;27.672;2023-05-24T06:35:06;97979.72;;;20.44;66.89
58373;BME280;44177;43.356;27.672;2023-05-24T06:37:32;97967.88;;;20.44;66.49
58373;BME280;44177;43.356;27.672;2023-05-24T06:39:58;97976.22;;;20.40;66.47
58373;BME280;44177;43.356;27.672;2023-05-24T06:42:23;97982.94;;;20.43;66.61
58373;BME280;44177;43.356;27.672;2023-05-24T06:44:49;97983.53;;;20.27;67.58
58373;BME280;44177;43.356;27.672;2023-05-24T06:47:14;97968.81;;;20.33;67.55
58373;BME280;44177;43.356;27.672;2023-05-24T06:49:39;97975.75;;;20.45;67.45
58373;BME280;44177;43.356;27.672;2023-05-24T06:52:06;97973.97;;;20.59;67.19
58373;BME280;44177;43.356;27.672;2023-05-24T06:54:32;97972.41;;;20.58;65.34
58373;BME280;44177;43.356;27.672;2023-05-24T06:56:58;97977.09;;;20.61;65.83
58373;BME280;44177;43.356;27.672;2023-05-24T06:59:23;97967.94;;;20.64;65.84
58373;BME280;44177;43.356;27.672;2023-05-24T07:01:49;97976.63;;;20.66;65.69
58373;BME280;44177;43.356;27.672;2023-05-24T07:04:18;97983.19;;;20.79;65.03
58373;BME280;44177;43.356;27.672;2023-05-24T07:06:43;97974.16;;;20.99;64.65
58373;BME280;44177;43.356;27.672;2023-05-24T07:09:10;97979.31;;;21.21;65.02
58373;BME280;44177;43.356;27.672;2023-05-24T07:11:35;97969.88;;;21.38;64.35
58373;BME280;44177;43.356;27.672;2023-05-24T07:14:01;97976.06;;;21.70;62.69
58373;BME280;44177;43.356;27.672;2023-05-24T07:16:26;97985.09;;;21.94;61.96
58373;BME280;44177;43.356;27.672;2023-05-24T07:18:53;97973.41;;;22.39;61.12
58373;BME280;44177;43.356;27.672;2023-05-24T07:21:19;97971.59;;;22.99;58.08
58373;BME280;44177;43.356;27.672;2023-05-24T07:23:44;97970.31;;;23.49;56.73
58373;BME280;44177;43.356;27.672;2023-05-24T07:26:10;97975.00;;;23.23;56.52
58373;BME280;44177;43.356;27.672;2023-05-24T07:28:36;97970.78;;;23.61;55.75
58373;BME280;44177;43.356;27.672;2023-05-24T07:31:04;97966.63;;;23.40;54.65
58373;BME280;44177;43.356;27.672;2023-05-24T07:33:30;97973.50;;;23.77;53.06
58373;BME280;44177;43.356;27.672;2023-05-24T07:35:56;97965.81;;;24.37;53.58
58373;BME280;44177;43.356;27.672;2023-05-24T07:38:22;97966.25;;;24.87;51.54
58373;BME280;44177;43.356;27.672;2023-05-24T07:40:48;97969.28;;;25.28;49.04
58373;BME280;44177;43.356;27.672;2023-05-24T07:43:13;97975.91;;;25.56;48.72
58373;BME280;44177;43.356;27.672;2023-05-24T07:45:39;97972.69;;;25.45;48.35
58373;BME280;44177;43.356;27.672;2023-05-24T07:48:04;97966.94;;;25.83;47.78
58373;BME280;44177;43.356;27.672;2023-05-24T07:50:30;97974.59;;;25.48;47.83
58373;BME280;44177;43.356;27.672;2023-05-24T07:52:56;97970.59;;;25.36;49.33
58373;BME280;44177;43.356;27.672;2023-05-24T07:55:21;97960.97;;;25.72;49.14
58373;BME280;44177;43.356;27.672;2023-05-24T07:57:47;97978.19;;;25.70;48.15
58373;BME280;44177;43.356;27.672;2023-05-24T08:00:13;97968.75;;;25.77;47.06
58373;BME280;44177;43.356;27.672;2023-05-24T08:02:40;97962.81;;;26.20;45.45
58373;BME280;44177;43.356;27.672;2023-05-24T08:05:06;97975.50;;;25.67;44.33
58373;BME280;44177;43.356;27.672;2023-05-24T08:07:33;97974.16;;;25.36;46.34
58373;BME280;44177;43.356;27.672;2023-05-24T08:09:59;97981.97;;;24.94;44.46
58373;BME280;44177;43.356;27.672;2023-05-24T08:12:24;97975.78;;;25.12;46.08
58373;BME280;44177;43.356;27.672;2023-05-24T08:14:50;97958.09;;;25.63;46.00
58373;BME280;44177;43.356;27.672;2023-05-24T08:17:16;97974.44;;;26.18;46.79
58373;BME280;44177;43.356;27.672;2023-05-24T08:19:41;97980.06;;;26.59;44.84
58373;BME280;44177;43.356;27.672;2023-05-24T08:22:06;97976.50;;;26.58;42.63
58373;BME280;44177;43.356;27.672;2023-05-24T08:24:32;97984.81;;;26.80;41.27
58373;BME280;44177;43.356;27.672;2023-05-24T08:26:58;97971.97;;;27.20;41.00
58373;BME280;44177;43.356;27.672;2023-05-24T08:29:23;97979.94;;;27.59;39.16
58373;BME280;44177;43.356;27.672;2023-05-24T08:31:49;97963.69;;;28.00;39.94
58373;BME280;44177;43.356;27.672;2023-05-24T08:34:14;97966.34;;;28.47;38.29
58373;BME280;44177;43.356;27.672;2023-05-24T08:36:40;97968.25;;;28.41;39.05
58373;BME280;44177;43.356;27.672;2023-05-24T08:39:08;97972.81;;;28.62;39.67
58373;BME280;44177;43.356;27.672;2023-05-24T08:41:34;97967.09;;;28.14;38.51
58373;BME280;44177;43.356;27.672;2023-05-24T08:44:04;97984.59;;;27.62;38.87
58373;BME280;44177;43.356;27.672;2023-05-24T08:46:33;97971.69;;;27.37;39.82
58373;BME280;44177;43.356;27.672;2023-05-24T08:48:59;97982.06;;;26.99;40.07
58373;BME280;44177;43.356;27.672;2023-05-24T08:51:28;97978.94;;;26.97;39.45
58373;BME280;44177;43.356;27.672;2023-05-24T08:53:56;97981.19;;;26.71;41.23
58373;BME280;44177;43.356;27.672;2023-05-24T08:56:24;97979.06;;;26.43;41.98
58373;BME280;44177;43.356;27.672;2023-05-24T08:58:51;97976.31;;;26.53;40.80
58373;BME280;44177;43.356;27.672;2023-05-24T09:01:16;97978.22;;;26.74;41.12
58373;BME280;44177;43.356;27.672;2023-05-24T09:03:44;97979.44;;;26.64;39.73
58373;BME280;44177;43.356;27.672;2023-05-24T09:06:12;97976.47;;;27.08;40.48
58373;BME280;44177;43.356;27.672;2023-05-24T09:08:37;97969.63;;;27.84;38.49
58373;BME280;44177;43.356;27.672;2023-05-24T09:11:06;97969.25;;;28.19;38.90
58373;BME280;44177;43.356;27.672;2023-05-24T09:13:32;97974.09;;;28.18;36.55
58373;BME280;44177;43.356;27.672;2023-05-24T09:15:59;97963.25;;;28.45;36.54
58373;BME280;44177;43.356;27.672;2023-05-24T09:18:25;97973.97;;;28.03;38.56
58373;BME280;44177;43.356;27.672;2023-05-24T09:20:51;97966.22;;;27.80;38.25
58373;BME280;44177;43.356;27.672;2023-05-24T09:23:16;97979.63;;;27.57;38.94
58373;BME280;44177;43.356;27.672;2023-05-24T09:25:46;97969.44;;;27.97;38.20
58373;BME280;44177;43.356;27.672;2023-05-24T09:28:13;97969.41;;;29.16;37.98
58373;BME280;44177;43.356;27.672;2023-05-24T09:30:44;97963.31;;;28.93;37.20
58373;BME280;44177;43.356;27.672;2023-05-24T09:33:10;97965.56;;;28.46;37.91
58373;BME280;44177;43.356;27.672;2023-05-24T09:35:41;97959.50;;;27.86;41.08
58373;BME280;44177;43.356;27.672;2023-05-24T09:38:15;97951.25;;;27.92;40.79
58373;BME280;44177;43.356;27.672;2023-05-24T09:40:42;97953.03;;;29.39;40.34
58373;BME280;44177;43.356;27.672;2023-05-24T09:43:08;97950.00;;;29.97;36.32
58373;BME280;44177;43.356;27.672;2023-05-24T09:45:44;97957.69;;;30.82;35.24
58373;BME280;44177;43.356;27.672;2023-05-24T09:48:15;97963.72;;;30.39;34.32
58373;BME280;44177;43.356;27.672;2023-05-24T09:50:43;97957.16;;;30.28;36.39
58373;BME280;44177;43.356;27.672;2023-05-24T09:53:11;97953.91;;;29.60;38.60
58373;BME280;44177;43.356;27.672;2023-05-24T09:55:37;97947.88;;;30.06;37.57
58373;BME280;44177;43.356;27.672;2023-05-24T09:58:03;97953.06;;;30.79;36.76
58373;BME280;44177;43.356;27.672;2023-05-24T10:00:32;97950.47;;;30.76;36.32
58373;BME280;44177;43.356;27.672;2023-05-24T10:03:04;97943.97;;;29.89;33.70
58373;BME280;44177;43.356;27.672;2023-05-24T10:05:35;97955.19;;;28.95;36.47
58373;BME280;44177;43.356;27.672;2023-05-24T10:08:01;97960.34;;;27.50;41.12
58373;BME280;44177;43.356;27.672;2023-05-24T10:10:30;97981.59;;;25.97;44.71
58373;BME280;44177;43.356;27.672;2023-05-24T10:12:57;97980.91;;;24.78;51.02
58373;BME280;44177;43.356;27.672;2023-05-24T10:15:24;97987.19;;;24.01;58.27
58373;BME280;44177;43.356;27.672;2023-05-24T10:17:51;97975.84;;;23.03;58.90
58373;BME280;44177;43.356;27.672;2023-05-24T10:20:17;97991.56;;;22.44;61.42
58373;BME280;44177;43.356;27.672;2023-05-24T10:22:45;97997.53;;;22.06;61.92
58373;BME280;44177;43.356;27.672;2023-05-24T10:25:20;97988.47;;;21.41;66.39
58373;BME280;44177;43.356;27.672;2023-05-24T10:27:48;97995.75;;;21.32;67.57
58373;BME280;44177;43.356;27.672;2023-05-24T10:30:39;97987.97;;;21.46;66.46
58373;BME280;44177;43.356;27.672;2023-05-24T10:33:07;97980.22;;;21.98;66.34
58373;BME280;44177;43.356;27.672;2023-05-24T10:35:33;97979.34;;;23.08;64.68
58373;BME280;44177;43.356;27.672;2023-05-24T10:38:06;97986.13;;;23.07;62.46
58373;BME280;44177;43.356;27.672;2023-05-24T10:40:32;97979.53;;;23.46;60.55
58373;BME280;44177;43.356;27.672;2023-05-24T10:42:57;97982.72;;;24.04;57.25
58373;BME280;44177;43.356;27.672;2023-05-24T10:47:49;97983.59;;;23.12;58.27
58373;BME280;44177;43.356;27.672;2023-05-24T10:50:19;97994.28;;;22.81;59.68
58373;BME280;44177;43.356;27.672;2023-05-24T10:52:45;98003.41;;;22.28;62.20
58373;BME280;44177;43.356;27.672;2023-05-24T10:55:12;97999.47;;;21.89;63.84
58373;BME280;44177;43.356;27.672;2023-05-24T10:57:38;98003.94;;;21.83;64.30
58373;BME280;44177;43.356;27.672;2023-05-24T11:03:01;98006.91;;;21.28;66.07
58373;BME280;44177;43.356;27.672;2023-05-24T11:08:00;98018.44;;;21.03;69.25
58373;BME280;44177;43.356;27.672;2023-05-24T11:10:31;98015.03;;;20.95;69.38
58373;BME280;44177;43.356;27.672;2023-05-24T11:13:01;98022.03;;;20.76;70.82
58373;BME280;44177;43.356;27.672;2023-05-24T11:15:27;98016.88;;;20.47;69.83
58373;BME280;44177;43.356;27.672;2023-05-24T11:20:38;98002.09;;;19.99;72.54
58373;BME280;44177;43.356;27.672;2023-05-24T11:23:07;98002.19;;;19.92;73.67
58373;BME280;44177;43.356;27.672;2023-05-24T11:25:36;98000.16;;;20.27;74.19
58373;BME280;44177;43.356;27.672;2023-05-24T11:28:06;98004.13;;;20.53;72.03
58373;BME280;44177;43.356;27.672;2023-05-24T11:30:40;98013.63;;;20.52;69.87
58373;BME280;44177;43.356;27.672;2023-05-24T11:33:16;98004.59;;;20.48;70.86
58373;BME280;44177;43.356;27.672;2023-05-24T11:35:43;98003.69;;;20.58;66.06
58373;BME280;44177;43.356;27.672;2023-05-24T11:38:15;97995.19;;;20.69;68.07
58373;BME280;44177;43.356;27.672;2023-05-24T11:40:42;97988.00;;;20.75;66.79
58373;BME280;44177;43.356;27.672;2023-05-24T11:43:12;97993.09;;;20.77;68.90
58373;BME280;44177;43.356;27.672;2023-05-24T11:45:41;97998.72;;;20.97;69.26
58373;BME280;44177;43.356;27.672;2023-05-24T11:48:08;98002.69;;;21.20;69.52
58373;BME280;44177;43.356;27.672;2023-05-24T11:50:38;98004.25;;;21.44;63.47
58373;BME280;44177;43.356;27.672;2023-05-24T11:53:04;98012.50;;;22.49;64.79
58373;BME280;44177;43.356;27.672;2023-05-24T11:55:29;98008.88;;;23.01;57.90
58373;BME280;44177;43.356;27.672;2023-05-24T11:57:57;98000.94;;;23.49;61.31
58373;BME280;44177;43.356;27.672;2023-05-24T12:00:25;97998.16;;;24.21;56.25
58373;BME280;44177;43.356;27.672;2023-05-24T12:02:50;97998.25;;;24.18;52.74
58373;BME280;44177;43.356;27.672;2023-05-24T12:05:18;97995.53;;;23.59;53.07
58373;BME280;44177;43.356;27.672;2023-05-24T12:07:44;97984.00;;;23.44;56.12
58373;BME280;44177;43.356;27.672;2023-05-24T12:10:16;97996.00;;;23.41;54.09
58373;BME280;44177;43.356;27.672;2023-05-24T12:12:45;97993.16;;;23.28;55.09
58373;BME280;44177;43.356;27.672;2023-05-24T12:15:11;97981.84;;;23.35;52.60
58373;BME280;44177;43.356;27.672;2023-05-24T12:17:39;97986.97;;;23.66;52.64
58373;BME280;44177;43.356;27.672;2023-05-24T12:20:05;97979.09;;;24.33;51.64
58373;BME280;44177;43.356;27.672;2023-05-24T12:22:32;97975.03;;;25.11;48.42
58373;BME280;44177;43.356;27.672;2023-05-24T12:24:58;97961.72;;;25.15;51.11
58373;BME280;44177;43.356;27.672;2023-05-24T12:27:27;97972.00;;;25.98;49.31
58373;BME280;44177;43.356;27.672;2023-05-24T12:29:54;97964.28;;;26.33;44.63
58373;BME280;44177;43.356;27.672;2023-05-24T12:32:20;97957.88;;;26.33;45.43
58373;BME280;44177;43.356;27.672;2023-05-24T12:34:48;97962.97;;;26.66;44.88
58373;BME280;44177;43.356;27.672;2023-05-24T12:37:14;97957.19;;;25.88;46.72
58373;BME280;44177;43.356;27.672;2023-05-24T12:39:40;97956.94;;;25.38;48.43
58373;BME280;44177;43.356;27.672;2023-05-24T12:42:06;97956.13;;;25.95;45.54
58373;BME280;44177;43.356;27.672;2023-05-24T12:44:34;97954.88;;;26.59;44.60
58373;BME280;44177;43.356;27.672;2023-05-24T12:47:01;97944.25;;;26.94;42.89
58373;BME280;44177;43.356;27.672;2023-05-24T12:49:27;97951.00;;;26.25;44.69
58373;BME280;44177;43.356;27.672;2023-05-24T12:51:53;97935.47;;;25.26;46.70
58373;BME280;44177;43.356;27.672;2023-05-24T12:54:23;97932.09;;;24.96;45.99
58373;BME280;44177;43.356;27.672;2023-05-24T12:56:49;97935.66;;;24.96;45.85
58373;BME280;44177;43.356;27.672;2023-05-24T12:59:14;97945.56;;;25.67;46.33
58373;BME280;44177;43.356;27.672;2023-05-24T13:01:40;97942.09;;;25.85;45.21
58373;BME280;44177;43.356;27.672;2023-05-24T13:04:06;97940.16;;;25.51;48.53
58373;BME280;44177;43.356;27.672;2023-05-24T13:06:31;97941.06;;;25.70;45.29
58373;BME280;44177;43.356;27.672;2023-05-24T13:08:57;97940.66;;;26.03;44.14
58373;BME280;44177;43.356;27.672;2023-05-24T13:11:22;97940.25;;;26.14;44.76
58373;BME280;44177;43.356;27.672;2023-05-24T13:13:50;97936.13;;;26.28;47.32